sensor_id;sensor_type;location;lat;lon;timestamp;temperature;humidity
72814;DHT22;60945;48.516;-2.768;2023-10-08T00:01:15;15.80;74.00
72814;DHT22;60945;48.516;-2.768;2023-10-08T00:03:42;15.70;74.40
72814;DHT22;60945;48.516;-2.768;2023-10-08T00:06:17;15.70;74.50
72814;DHT22;60945;48.516;-2.768;2023-10-08T00:08:45;15.60;74.90
72814;DHT22;60945;48.516;-2.768;2023-10-08T00:11:11;15.60;74.90
72814;DHT22;60945;48.516;-2.768;2023-10-08T00:13:37;15.60;75.20
72814;DHT22;60945;48.516;-2.768;2023-10-08T00:16:12;15.60;74.80
72814;DHT22;60945;48.516;-2.768;2023-10-08T00:18:43;15.60;75.20
72814;DHT22;60945;48.516;-2.768;2023-10-08T00:21:15;15.50;76.00
72814;DHT22;60945;48.516;-2.768;2023-10-08T00:23:41;15.50;75.90
72814;DHT22;60945;48.516;-2.768;2023-10-08T00:26:15;15.40;76.10
72814;DHT22;60945;48.516;-2.768;2023-10-08T00:28:44;15.40;76.20
72814;DHT22;60945;48.516;-2.768;2023-10-08T00:31:14;15.30;76.40
72814;DHT22;60945;48.516;-2.768;2023-10-08T00:33:43;15.30;76.70
72814;DHT22;60945;48.516;-2.768;2023-10-08T00:36:12;15.30;76.70
72814;DHT22;60945;48.516;-2.768;2023-10-08T00:38:46;15.30;76.70
72814;DHT22;60945;48.516;-2.768;2023-10-08T00:41:15;15.30;76.30
72814;DHT22;60945;48.516;-2.768;2023-10-08T00:43:41;15.30;76.60
72814;DHT22;60945;48.516;-2.768;2023-10-08T00:46:07;15.20;76.60
72814;DHT22;60945;48.516;-2.768;2023-10-08T00:48:52;15.10;76.70
72814;DHT22;60945;48.516;-2.768;2023-10-08T00:51:22;15.20;76.90
72814;DHT22;60945;48.516;-2.768;2023-10-08T00:53:54;15.20;76.80
72814;DHT22;60945;48.516;-2.768;2023-10-08T00:56:28;15.20;76.90
72814;DHT22;60945;48.516;-2.768;2023-10-08T00:59:12;15.10;76.70
72814;DHT22;60945;48.516;-2.768;2023-10-08T01:01:39;15.10;76.70
72814;DHT22;60945;48.516;-2.768;2023-10-08T01:04:05;15.20;76.80
72814;DHT22;60945;48.516;-2.768;2023-10-08T01:06:38;15.30;76.10
72814;DHT22;60945;48.516;-2.768;2023-10-08T01:09:05;15.50;75.10
72814;DHT22;60945;48.516;-2.768;2023-10-08T01:11:43;15.50;74.60
72814;DHT22;60945;48.516;-2.768;2023-10-08T01:14:16;15.70;73.50
72814;DHT22;60945;48.516;-2.768;2023-10-08T01:16:46;15.90;73.00
72814;DHT22;60945;48.516;-2.768;2023-10-08T01:19:18;15.90;72.60
72814;DHT22;60945;48.516;-2.768;2023-10-08T01:21:45;15.90;72.50
72814;DHT22;60945;48.516;-2.768;2023-10-08T01:24:11;15.90;72.30
72814;DHT22;60945;48.516;-2.768;2023-10-08T01:26:42;15.90;72.30
72814;DHT22;60945;48.516;-2.768;2023-10-08T01:29:11;15.90;72.40
72814;DHT22;60945;48.516;-2.768;2023-10-08T01:31:46;15.80;72.50
72814;DHT22;60945;48.516;-2.768;2023-10-08T01:34:12;15.80;72.40
72814;DHT22;60945;48.516;-2.768;2023-10-08T01:36:43;15.70;73.00
72814;DHT22;60945;48.516;-2.768;2023-10-08T01:39:11;15.80;72.20
72814;DHT22;60945;48.516;-2.768;2023-10-08T01:41:43;15.80;72.50
72814;DHT22;60945;48.516;-2.768;2023-10-08T01:44:09;15.70;72.80
72814;DHT22;60945;48.516;-2.768;2023-10-08T01:46:35;15.60;73.50
72814;DHT22;60945;48.516;-2.768;2023-10-08T01:49:01;15.50;73.10
72814;DHT22;60945;48.516;-2.768;2023-10-08T01:51:34;15.50;73.40
72814;DHT22;60945;48.516;-2.768;2023-10-08T01:54:10;15.40;73.70
72814;DHT22;60945;48.516;-2.768;2023-10-08T01:56:41;15.40;74.00
72814;DHT22;60945;48.516;-2.768;2023-10-08T01:59:10;15.30;74.30
72814;DHT22;60945;48.516;-2.768;2023-10-08T02:01:37;15.20;75.00
72814;DHT22;60945;48.516;-2.768;2023-10-08T02:04:05;15.10;75.20
72814;DHT22;60945;48.516;-2.768;2023-10-08T02:06:35;15.10;75.40
72814;DHT22;60945;48.516;-2.768;2023-10-08T02:09:04;15.00;75.70
72814;DHT22;60945;48.516;-2.768;2023-10-08T02:11:43;15.00;75.80
72814;DHT22;60945;48.516;-2.768;2023-10-08T02:14:09;14.90;76.10
72814;DHT22;60945;48.516;-2.768;2023-10-08T02:16:35;14.80;76.10
72814;DHT22;60945;48.516;-2.768;2023-10-08T02:19:03;14.80;76.00
72814;DHT22;60945;48.516;-2.768;2023-10-08T02:21:29;14.70;76.50
72814;DHT22;60945;48.516;-2.768;2023-10-08T02:23:54;14.70;76.30
72814;DHT22;60945;48.516;-2.768;2023-10-08T02:26:20;14.70;76.40
72814;DHT22;60945;48.516;-2.768;2023-10-08T02:28:46;14.70;76.70
72814;DHT22;60945;48.516;-2.768;2023-10-08T02:31:11;14.60;76.70
72814;DHT22;60945;48.516;-2.768;2023-10-08T02:33:37;14.50;77.00
72814;DHT22;60945;48.516;-2.768;2023-10-08T02:36:03;14.50;77.40
72814;DHT22;60945;48.516;-2.768;2023-10-08T02:38:30;14.50;76.90
72814;DHT22;60945;48.516;-2.768;2023-10-08T02:41:04;14.40;77.40
72814;DHT22;60945;48.516;-2.768;2023-10-08T02:43:32;14.40;77.70
72814;DHT22;60945;48.516;-2.768;2023-10-08T02:46:00;14.40;77.70
72814;DHT22;60945;48.516;-2.768;2023-10-08T02:48:26;14.50;77.40
72814;DHT22;60945;48.516;-2.768;2023-10-08T02:50:52;14.50;76.70
72814;DHT22;60945;48.516;-2.768;2023-10-08T02:53:20;14.60;76.50
72814;DHT22;60945;48.516;-2.768;2023-10-08T02:55:51;14.80;75.50
72814;DHT22;60945;48.516;-2.768;2023-10-08T02:58:17;14.80;75.20
72814;DHT22;60945;48.516;-2.768;2023-10-08T03:00:47;15.00;74.70
72814;DHT22;60945;48.516;-2.768;2023-10-08T03:03:16;15.00;74.30
72814;DHT22;60945;48.516;-2.768;2023-10-08T03:05:51;15.00;73.80
72814;DHT22;60945;48.516;-2.768;2023-10-08T03:08:18;15.10;73.50
72814;DHT22;60945;48.516;-2.768;2023-10-08T03:10:49;15.00;73.40
72814;DHT22;60945;48.516;-2.768;2023-10-08T03:13:16;15.00;73.10
72814;DHT22;60945;48.516;-2.768;2023-10-08T03:15:42;15.00;73.00
72814;DHT22;60945;48.516;-2.768;2023-10-08T03:18:34;14.90;73.40
72814;DHT22;60945;48.516;-2.768;2023-10-08T03:21:07;14.80;73.80
72814;DHT22;60945;48.516;-2.768;2023-10-08T03:24:05;14.70;74.40
72814;DHT22;60945;48.516;-2.768;2023-10-08T03:27:09;14.60;74.60
72814;DHT22;60945;48.516;-2.768;2023-10-08T03:29:41;14.50;74.80
72814;DHT22;60945;48.516;-2.768;2023-10-08T03:32:10;14.50;75.00
72814;DHT22;60945;48.516;-2.768;2023-10-08T03:34:46;14.50;74.90
72814;DHT22;60945;48.516;-2.768;2023-10-08T03:37:18;14.40;75.30
72814;DHT22;60945;48.516;-2.768;2023-10-08T03:39:50;14.30;75.80
72814;DHT22;60945;48.516;-2.768;2023-10-08T03:42:47;14.20;76.10
72814;DHT22;60945;48.516;-2.768;2023-10-08T03:45:14;14.20;75.70
72814;DHT22;60945;48.516;-2.768;2023-10-08T03:47:48;14.10;76.40
72814;DHT22;60945;48.516;-2.768;2023-10-08T03:50:28;14.10;76.20
72814;DHT22;60945;48.516;-2.768;2023-10-08T03:53:05;14.00;76.50
72814;DHT22;60945;48.516;-2.768;2023-10-08T03:55:37;14.00;76.30
72814;DHT22;60945;48.516;-2.768;2023-10-08T03:58:06;14.00;76.30
72814;DHT22;60945;48.516;-2.768;2023-10-08T04:00:35;14.00;76.40
72814;DHT22;60945;48.516;-2.768;2023-10-08T04:03:07;14.00;76.70
72814;DHT22;60945;48.516;-2.768;2023-10-08T04:05:37;13.90;76.90
72814;DHT22;60945;48.516;-2.768;2023-10-08T04:08:17;13.90;76.60
72814;DHT22;60945;48.516;-2.768;2023-10-08T04:10:45;13.80;76.80
72814;DHT22;60945;48.516;-2.768;2023-10-08T04:13:10;13.80;76.80
72814;DHT22;60945;48.516;-2.768;2023-10-08T04:15:42;13.80;77.60
72814;DHT22;60945;48.516;-2.768;2023-10-08T04:18:11;13.70;77.80
72814;DHT22;60945;48.516;-2.768;2023-10-08T04:20:38;13.80;77.90
72814;DHT22;60945;48.516;-2.768;2023-10-08T04:23:06;13.80;77.50
72814;DHT22;60945;48.516;-2.768;2023-10-08T04:25:39;13.80;77.30
72814;DHT22;60945;48.516;-2.768;2023-10-08T04:28:07;13.80;77.50
72814;DHT22;60945;48.516;-2.768;2023-10-08T04:30:38;13.80;77.70
72814;DHT22;60945;48.516;-2.768;2023-10-08T04:33:07;13.80;78.40
72814;DHT22;60945;48.516;-2.768;2023-10-08T04:35:37;13.80;78.10
72814;DHT22;60945;48.516;-2.768;2023-10-08T04:38:17;13.70;78.00
72814;DHT22;60945;48.516;-2.768;2023-10-08T04:40:48;13.70;78.40
72814;DHT22;60945;48.516;-2.768;2023-10-08T04:43:19;13.70;78.10
72814;DHT22;60945;48.516;-2.768;2023-10-08T04:46:02;13.70;78.00
72814;DHT22;60945;48.516;-2.768;2023-10-08T04:48:42;13.70;77.70
72814;DHT22;60945;48.516;-2.768;2023-10-08T04:51:09;13.70;77.60
72814;DHT22;60945;48.516;-2.768;2023-10-08T04:53:38;13.60;77.70
72814;DHT22;60945;48.516;-2.768;2023-10-08T04:56:07;13.60;78.10
72814;DHT22;60945;48.516;-2.768;2023-10-08T04:58:40;13.60;78.10
72814;DHT22;60945;48.516;-2.768;2023-10-08T05:01:09;13.70;77.80
72814;DHT22;60945;48.516;-2.768;2023-10-08T05:03:51;13.80;77.60
72814;DHT22;60945;48.516;-2.768;2023-10-08T05:06:39;13.70;77.70
72814;DHT22;60945;48.516;-2.768;2023-10-08T05:09:15;13.60;77.50
72814;DHT22;60945;48.516;-2.768;2023-10-08T05:11:45;13.60;78.20
72814;DHT22;60945;48.516;-2.768;2023-10-08T05:16:59;13.60;77.50
72814;DHT22;60945;48.516;-2.768;2023-10-08T05:19:48;13.60;78.00
72814;DHT22;60945;48.516;-2.768;2023-10-08T05:22:34;13.60;78.00
72814;DHT22;60945;48.516;-2.768;2023-10-08T05:25:00;13.70;78.10
72814;DHT22;60945;48.516;-2.768;2023-10-08T05:27:35;13.70;78.20
72814;DHT22;60945;48.516;-2.768;2023-10-08T05:30:24;13.70;78.60
72814;DHT22;60945;48.516;-2.768;2023-10-08T05:33:06;13.60;78.70
72814;DHT22;60945;48.516;-2.768;2023-10-08T05:35:39;13.50;78.80
72814;DHT22;60945;48.516;-2.768;2023-10-08T05:38:15;13.50;78.50
72814;DHT22;60945;48.516;-2.768;2023-10-08T05:40:47;13.50;78.20
72814;DHT22;60945;48.516;-2.768;2023-10-08T05:46:15;13.40;79.10
72814;DHT22;60945;48.516;-2.768;2023-10-08T05:48:55;13.40;79.30
72814;DHT22;60945;48.516;-2.768;2023-10-08T05:51:35;13.30;79.70
72814;DHT22;60945;48.516;-2.768;2023-10-08T05:54:23;13.30;79.80
72814;DHT22;60945;48.516;-2.768;2023-10-08T05:59:31;13.30;79.70
72814;DHT22;60945;48.516;-2.768;2023-10-08T06:02:05;13.30;79.80
72814;DHT22;60945;48.516;-2.768;2023-10-08T06:04:51;13.40;79.50
72814;DHT22;60945;48.516;-2.768;2023-10-08T06:10:23;13.60;78.20
72814;DHT22;60945;48.516;-2.768;2023-10-08T06:15:40;13.60;77.70
72814;DHT22;60945;48.516;-2.768;2023-10-08T06:18:29;13.60;78.10
72814;DHT22;60945;48.516;-2.768;2023-10-08T06:20:56;13.50;77.80
72814;DHT22;60945;48.516;-2.768;2023-10-08T06:23:25;13.50;78.40
72814;DHT22;60945;48.516;-2.768;2023-10-08T06:25:53;13.50;78.20
72814;DHT22;60945;48.516;-2.768;2023-10-08T06:28:43;13.50;78.60
72814;DHT22;60945;48.516;-2.768;2023-10-08T06:31:09;13.40;78.80
72814;DHT22;60945;48.516;-2.768;2023-10-08T06:33:42;13.40;78.80
72814;DHT22;60945;48.516;-2.768;2023-10-08T06:36:09;13.40;78.70
72814;DHT22;60945;48.516;-2.768;2023-10-08T06:38:44;13.30;79.20
72814;DHT22;60945;48.516;-2.768;2023-10-08T06:41:14;13.30;79.70
72814;DHT22;60945;48.516;-2.768;2023-10-08T06:43:44;13.30;78.80
72814;DHT22;60945;48.516;-2.768;2023-10-08T06:46:28;13.30;78.40
72814;DHT22;60945;48.516;-2.768;2023-10-08T06:49:03;13.30;78.80
72814;DHT22;60945;48.516;-2.768;2023-10-08T06:51:37;13.20;78.70
72814;DHT22;60945;48.516;-2.768;2023-10-08T06:54:02;13.30;78.50
72814;DHT22;60945;48.516;-2.768;2023-10-08T06:56:29;13.30;78.80
72814;DHT22;60945;48.516;-2.768;2023-10-08T06:58:57;13.30;78.30
72814;DHT22;60945;48.516;-2.768;2023-10-08T07:01:24;13.30;78.20
72814;DHT22;60945;48.516;-2.768;2023-10-08T07:03:54;13.30;79.00
72814;DHT22;60945;48.516;-2.768;2023-10-08T07:06:29;13.30;79.20
72814;DHT22;60945;48.516;-2.768;2023-10-08T07:09:00;13.30;79.40
72814;DHT22;60945;48.516;-2.768;2023-10-08T07:11:30;13.40;78.20
72814;DHT22;60945;48.516;-2.768;2023-10-08T07:14:03;13.50;77.90
72814;DHT22;60945;48.516;-2.768;2023-10-08T07:16:30;13.60;78.30
72814;DHT22;60945;48.516;-2.768;2023-10-08T07:18:56;13.60;78.20
72814;DHT22;60945;48.516;-2.768;2023-10-08T07:21:28;13.70;78.60
72814;DHT22;60945;48.516;-2.768;2023-10-08T07:23:57;13.70;77.00
72814;DHT22;60945;48.516;-2.768;2023-10-08T07:26:29;13.90;76.70
72814;DHT22;60945;48.516;-2.768;2023-10-08T07:29:05;14.10;76.00
72814;DHT22;60945;48.516;-2.768;2023-10-08T07:31:35;14.50;75.50
72814;DHT22;60945;48.516;-2.768;2023-10-08T07:34:02;14.90;73.90
72814;DHT22;60945;48.516;-2.768;2023-10-08T07:36:48;15.10;72.80
72814;DHT22;60945;48.516;-2.768;2023-10-08T07:39:15;15.50;70.90
72814;DHT22;60945;48.516;-2.768;2023-10-08T07:41:50;15.80;69.10
72814;DHT22;60945;48.516;-2.768;2023-10-08T07:44:16;16.00;68.00
72814;DHT22;60945;48.516;-2.768;2023-10-08T07:46:47;16.10;67.50
72814;DHT22;60945;48.516;-2.768;2023-10-08T07:49:13;16.20;67.90
72814;DHT22;60945;48.516;-2.768;2023-10-08T07:51:40;16.40;66.70
72814;DHT22;60945;48.516;-2.768;2023-10-08T07:54:06;16.70;65.30
72814;DHT22;60945;48.516;-2.768;2023-10-08T07:56:35;16.80;64.60
72814;DHT22;60945;48.516;-2.768;2023-10-08T07:59:03;17.00;64.10
72814;DHT22;60945;48.516;-2.768;2023-10-08T08:01:34;17.30;63.10
72814;DHT22;60945;48.516;-2.768;2023-10-08T08:04:00;17.70;62.10
72814;DHT22;60945;48.516;-2.768;2023-10-08T08:06:25;17.90;61.10
72814;DHT22;60945;48.516;-2.768;2023-10-08T08:08:51;18.20;60.30
72814;DHT22;60945;48.516;-2.768;2023-10-08T08:11:17;18.40;60.50
72814;DHT22;60945;48.516;-2.768;2023-10-08T08:13:44;18.40;61.00
72814;DHT22;60945;48.516;-2.768;2023-10-08T08:16:14;18.40;62.40
72814;DHT22;60945;48.516;-2.768;2023-10-08T08:18:44;18.60;60.90
72814;DHT22;60945;48.516;-2.768;2023-10-08T08:21:11;18.80;60.80
72814;DHT22;60945;48.516;-2.768;2023-10-08T08:23:44;18.90;60.60
72814;DHT22;60945;48.516;-2.768;2023-10-08T08:26:14;19.20;59.90
72814;DHT22;60945;48.516;-2.768;2023-10-08T08:28:55;19.50;60.60
72814;DHT22;60945;48.516;-2.768;2023-10-08T08:31:25;20.00;59.00
72814;DHT22;60945;48.516;-2.768;2023-10-08T08:33:51;20.30;57.70
72814;DHT22;60945;48.516;-2.768;2023-10-08T08:36:23;20.80;54.40
72814;DHT22;60945;48.516;-2.768;2023-10-08T08:38:49;21.20;53.40
72814;DHT22;60945;48.516;-2.768;2023-10-08T08:41:15;21.40;52.80
72814;DHT22;60945;48.516;-2.768;2023-10-08T08:43:47;21.60;52.30
72814;DHT22;60945;48.516;-2.768;2023-10-08T08:46:13;21.70;51.60
72814;DHT22;60945;48.516;-2.768;2023-10-08T08:48:41;22.10;53.20
72814;DHT22;60945;48.516;-2.768;2023-10-08T08:51:07;22.10;52.40
72814;DHT22;60945;48.516;-2.768;2023-10-08T08:53:35;22.50;51.30
72814;DHT22;60945;48.516;-2.768;2023-10-08T08:56:01;23.10;49.00
72814;DHT22;60945;48.516;-2.768;2023-10-08T08:58:33;23.60;48.20
72814;DHT22;60945;48.516;-2.768;2023-10-08T09:01:03;23.80;47.30
72814;DHT22;60945;48.516;-2.768;2023-10-08T09:03:30;24.80;42.30
72814;DHT22;60945;48.516;-2.768;2023-10-08T09:05:57;25.40;41.30
72814;DHT22;60945;48.516;-2.768;2023-10-08T09:08:34;26.30;40.20
72814;DHT22;60945;48.516;-2.768;2023-10-08T09:11:00;28.00;37.30
72814;DHT22;60945;48.516;-2.768;2023-10-08T09:13:34;29.70;34.30
72814;DHT22;60945;48.516;-2.768;2023-10-08T09:16:08;31.10;32.20
72814;DHT22;60945;48.516;-2.768;2023-10-08T09:18:36;31.90;31.20
72814;DHT22;60945;48.516;-2.768;2023-10-08T09:21:11;32.70;29.80
72814;DHT22;60945;48.516;-2.768;2023-10-08T09:23:43;33.60;28.80
72814;DHT22;60945;48.516;-2.768;2023-10-08T09:26:10;34.00;28.60
72814;DHT22;60945;48.516;-2.768;2023-10-08T09:28:37;34.50;28.00
72814;DHT22;60945;48.516;-2.768;2023-10-08T09:31:05;34.70;28.10
72814;DHT22;60945;48.516;-2.768;2023-10-08T09:33:32;34.60;28.30
72814;DHT22;60945;48.516;-2.768;2023-10-08T09:35:58;35.30;27.70
72814;DHT22;60945;48.516;-2.768;2023-10-08T09:38:28;35.60;27.00
72814;DHT22;60945;48.516;-2.768;2023-10-08T09:40:55;35.70;26.00
72814;DHT22;60945;48.516;-2.768;2023-10-08T09:43:22;32.80;28.30
72814;DHT22;60945;48.516;-2.768;2023-10-08T09:45:55;29.00;32.20
72814;DHT22;60945;48.516;-2.768;2023-10-08T09:48:28;26.80;34.80
72814;DHT22;60945;48.516;-2.768;2023-10-08T09:50:58;25.80;36.80
72814;DHT22;60945;48.516;-2.768;2023-10-08T09:56:14;24.70;37.50
72814;DHT22;60945;48.516;-2.768;2023-10-08T09:58:41;24.50;38.20
72814;DHT22;60945;48.516;-2.768;2023-10-08T10:01:08;24.00;40.00
72814;DHT22;60945;48.516;-2.768;2023-10-08T10:03:35;23.90;39.60
72814;DHT22;60945;48.516;-2.768;2023-10-08T10:06:01;23.90;39.20
72814;DHT22;60945;48.516;-2.768;2023-10-08T10:08:27;23.70;40.40
72814;DHT22;60945;48.516;-2.768;2023-10-08T10:11:01;23.70;40.10
72814;DHT22;60945;48.516;-2.768;2023-10-08T10:13:35;23.50;40.80
72814;DHT22;60945;48.516;-2.768;2023-10-08T10:16:05;23.60;40.00
72814;DHT22;60945;48.516;-2.768;2023-10-08T10:18:33;23.50;40.40
72814;DHT22;60945;48.516;-2.768;2023-10-08T10:21:44;23.40;41.00
72814;DHT22;60945;48.516;-2.768;2023-10-08T10:23:46;23.40;40.40
72814;DHT22;60945;48.516;-2.768;2023-10-08T10:26:34;23.40;40.50
72814;DHT22;60945;48.516;-2.768;2023-10-08T10:29:17;23.20;41.50
72814;DHT22;60945;48.516;-2.768;2023-10-08T10:31:52;23.10;40.90
72814;DHT22;60945;48.516;-2.768;2023-10-08T10:34:26;22.90;42.40
72814;DHT22;60945;48.516;-2.768;2023-10-08T10:36:57;22.80;42.00
72814;DHT22;60945;48.516;-2.768;2023-10-08T10:39:42;22.90;41.70
72814;DHT22;60945;48.516;-2.768;2023-10-08T10:42:08;22.90;41.80
72814;DHT22;60945;48.516;-2.768;2023-10-08T10:44:46;22.90;42.50
72814;DHT22;60945;48.516;-2.768;2023-10-08T10:47:16;22.90;42.60
72814;DHT22;60945;48.516;-2.768;2023-10-08T10:49:50;22.80;43.00
72814;DHT22;60945;48.516;-2.768;2023-10-08T10:52:16;22.70;43.20
72814;DHT22;60945;48.516;-2.768;2023-10-08T10:55:04;22.60;43.90
72814;DHT22;60945;48.516;-2.768;2023-10-08T10:57:40;22.60;43.90
72814;DHT22;60945;48.516;-2.768;2023-10-08T11:00:07;22.60;43.30
72814;DHT22;60945;48.516;-2.768;2023-10-08T11:02:52;22.60;42.00
72814;DHT22;60945;48.516;-2.768;2023-10-08T11:05:22;22.70;42.10
72814;DHT22;60945;48.516;-2.768;2023-10-08T11:07:58;22.70;41.00
72814;DHT22;60945;48.516;-2.768;2023-10-08T11:10:37;22.60;40.80
72814;DHT22;60945;48.516;-2.768;2023-10-08T11:13:11;22.60;40.50
72814;DHT22;60945;48.516;-2.768;2023-10-08T11:15:44;22.70;38.90
72814;DHT22;60945;48.516;-2.768;2023-10-08T11:18:21;22.80;39.00
72814;DHT22;60945;48.516;-2.768;2023-10-08T11:20:49;22.80;39.10
72814;DHT22;60945;48.516;-2.768;2023-10-08T11:23:37;22.90;39.30
72814;DHT22;60945;48.516;-2.768;2023-10-08T11:26:07;23.00;37.90
72814;DHT22;60945;48.516;-2.768;2023-10-08T11:28:35;23.30;39.50
72814;DHT22;60945;48.516;-2.768;2023-10-08T11:31:04;23.20;39.00
72814;DHT22;60945;48.516;-2.768;2023-10-08T11:33:44;23.10;39.10
72814;DHT22;60945;48.516;-2.768;2023-10-08T11:36:20;23.00;38.70
72814;DHT22;60945;48.516;-2.768;2023-10-08T11:38:53;23.00;38.20
72814;DHT22;60945;48.516;-2.768;2023-10-08T11:41:21;23.10;38.80
72814;DHT22;60945;48.516;-2.768;2023-10-08T11:43:51;23.20;38.30
72814;DHT22;60945;48.516;-2.768;2023-10-08T11:46:27;23.20;37.70
72814;DHT22;60945;48.516;-2.768;2023-10-08T11:48:54;23.20;38.70
72814;DHT22;60945;48.516;-2.768;2023-10-08T11:51:24;23.10;38.20
72814;DHT22;60945;48.516;-2.768;2023-10-08T11:53:50;23.10;38.70
72814;DHT22;60945;48.516;-2.768;2023-10-08T11:56:17;23.10;38.30
72814;DHT22;60945;48.516;-2.768;2023-10-08T11:58:47;23.10;38.00
72814;DHT22;60945;48.516;-2.768;2023-10-08T12:01:12;23.10;38.00
72814;DHT22;60945;48.516;-2.768;2023-10-08T12:03:42;23.20;38.70
72814;DHT22;60945;48.516;-2.768;2023-10-08T12:06:13;23.30;38.00
72814;DHT22;60945;48.516;-2.768;2023-10-08T12:08:42;23.50;38.30
72814;DHT22;60945;48.516;-2.768;2023-10-08T12:11:07;23.60;38.30
72814;DHT22;60945;48.516;-2.768;2023-10-08T12:13:38;23.70;38.50
72814;DHT22;60945;48.516;-2.768;2023-10-08T12:16:03;23.60;38.90
72814;DHT22;60945;48.516;-2.768;2023-10-08T12:18:38;23.50;37.90
72814;DHT22;60945;48.516;-2.768;2023-10-08T12:21:08;23.40;37.90
72814;DHT22;60945;48.516;-2.768;2023-10-08T12:23:40;23.40;38.40
72814;DHT22;60945;48.516;-2.768;2023-10-08T12:26:08;23.50;38.70
72814;DHT22;60945;48.516;-2.768;2023-10-08T12:28:35;23.50;41.40
72814;DHT22;60945;48.516;-2.768;2023-10-08T12:31:02;23.50;39.00
72814;DHT22;60945;48.516;-2.768;2023-10-08T12:33:29;23.60;41.30
72814;DHT22;60945;48.516;-2.768;2023-10-08T12:35:56;23.50;38.60
72814;DHT22;60945;48.516;-2.768;2023-10-08T12:38:23;23.60;42.30
72814;DHT22;60945;48.516;-2.768;2023-10-08T12:40:49;23.80;40.40
72814;DHT22;60945;48.516;-2.768;2023-10-08T12:43:24;24.30;38.40
72814;DHT22;60945;48.516;-2.768;2023-10-08T12:45:54;24.00;39.00
72814;DHT22;60945;48.516;-2.768;2023-10-08T12:48:20;23.90;39.60
72814;DHT22;60945;48.516;-2.768;2023-10-08T12:50:47;23.90;41.60
72814;DHT22;60945;48.516;-2.768;2023-10-08T12:53:28;23.80;42.80
72814;DHT22;60945;48.516;-2.768;2023-10-08T12:56:04;23.70;44.40
72814;DHT22;60945;48.516;-2.768;2023-10-08T12:58:36;23.60;44.60
72814;DHT22;60945;48.516;-2.768;2023-10-08T13:01:13;23.60;44.80
72814;DHT22;60945;48.516;-2.768;2023-10-08T13:03:40;23.50;45.00
72814;DHT22;60945;48.516;-2.768;2023-10-08T13:06:14;23.60;45.80
72814;DHT22;60945;48.516;-2.768;2023-10-08T13:08:55;23.60;46.40
72814;DHT22;60945;48.516;-2.768;2023-10-08T13:11:22;23.40;46.90
72814;DHT22;60945;48.516;-2.768;2023-10-08T13:13:55;23.40;46.90
72814;DHT22;60945;48.516;-2.768;2023-10-08T13:16:27;23.40;47.60
72814;DHT22;60945;48.516;-2.768;2023-10-08T13:18:57;23.50;48.30
72814;DHT22;60945;48.516;-2.768;2023-10-08T13:21:25;23.90;47.90
72814;DHT22;60945;48.516;-2.768;2023-10-08T13:23:53;27.00;43.30
72814;DHT22;60945;48.516;-2.768;2023-10-08T13:26:19;30.90;35.70
72814;DHT22;60945;48.516;-2.768;2023-10-08T13:28:48;34.00;31.00
72814;DHT22;60945;48.516;-2.768;2023-10-08T13:31:14;36.10;28.20
72814;DHT22;60945;48.516;-2.768;2023-10-08T13:33:42;37.20;26.80
72814;DHT22;60945;48.516;-2.768;2023-10-08T13:36:10;38.00;25.40
72814;DHT22;60945;48.516;-2.768;2023-10-08T13:38:42;39.10;24.70
72814;DHT22;60945;48.516;-2.768;2023-10-08T13:41:08;40.10;24.10
72814;DHT22;60945;48.516;-2.768;2023-10-08T13:43:48;40.30;23.70
72814;DHT22;60945;48.516;-2.768;2023-10-08T13:46:15;40.80;23.30
72814;DHT22;60945;48.516;-2.768;2023-10-08T13:48:44;41.30;22.80
72814;DHT22;60945;48.516;-2.768;2023-10-08T13:51:13;41.30;22.80
72814;DHT22;60945;48.516;-2.768;2023-10-08T13:53:41;41.30;23.20
72814;DHT22;60945;48.516;-2.768;2023-10-08T13:56:10;41.50;22.90
72814;DHT22;60945;48.516;-2.768;2023-10-08T13:58:38;41.80;22.70
72814;DHT22;60945;48.516;-2.768;2023-10-08T14:01:12;41.20;22.50
72814;DHT22;60945;48.516;-2.768;2023-10-08T14:03:50;41.00;21.90
72814;DHT22;60945;48.516;-2.768;2023-10-08T14:06:21;41.60;21.60
72814;DHT22;60945;48.516;-2.768;2023-10-08T14:08:47;41.90;21.50
72814;DHT22;60945;48.516;-2.768;2023-10-08T14:11:21;41.40;22.00
72814;DHT22;60945;48.516;-2.768;2023-10-08T14:13:51;41.90;21.50
72814;DHT22;60945;48.516;-2.768;2023-10-08T14:16:18;42.00;21.60
72814;DHT22;60945;48.516;-2.768;2023-10-08T14:18:44;42.10;21.60
72814;DHT22;60945;48.516;-2.768;2023-10-08T14:21:16;41.70;21.70
72814;DHT22;60945;48.516;-2.768;2023-10-08T14:23:43;41.70;22.10
72814;DHT22;60945;48.516;-2.768;2023-10-08T14:26:10;42.30;22.40
72814;DHT22;60945;48.516;-2.768;2023-10-08T14:28:36;42.30;22.00
72814;DHT22;60945;48.516;-2.768;2023-10-08T14:31:16;41.80;22.10
72814;DHT22;60945;48.516;-2.768;2023-10-08T14:33:43;41.40;22.50
72814;DHT22;60945;48.516;-2.768;2023-10-08T14:36:23;41.40;22.40
72814;DHT22;60945;48.516;-2.768;2023-10-08T14:39:07;41.70;22.50
72814;DHT22;60945;48.516;-2.768;2023-10-08T14:41:51;40.80;22.90
72814;DHT22;60945;48.516;-2.768;2023-10-08T14:44:35;37.30;25.80
72814;DHT22;60945;48.516;-2.768;2023-10-08T14:47:03;34.60;28.20
72814;DHT22;60945;48.516;-2.768;2023-10-08T14:49:30;32.80;30.30
72814;DHT22;60945;48.516;-2.768;2023-10-08T14:51:55;31.50;32.00
72814;DHT22;60945;48.516;-2.768;2023-10-08T14:54:21;30.80;32.90
72814;DHT22;60945;48.516;-2.768;2023-10-08T14:56:46;30.20;33.90
72814;DHT22;60945;48.516;-2.768;2023-10-08T14:59:12;29.60;35.00
72814;DHT22;60945;48.516;-2.768;2023-10-08T15:01:41;29.00;36.10
72814;DHT22;60945;48.516;-2.768;2023-10-08T15:04:07;28.30;37.60
72814;DHT22;60945;48.516;-2.768;2023-10-08T15:06:37;27.70;38.70
72814;DHT22;60945;48.516;-2.768;2023-10-08T15:09:02;27.10;39.70
72814;DHT22;60945;48.516;-2.768;2023-10-08T15:11:28;26.60;41.10
72814;DHT22;60945;48.516;-2.768;2023-10-08T15:13:56;26.30;42.10
72814;DHT22;60945;48.516;-2.768;2023-10-08T15:16:22;26.10;41.90
72814;DHT22;60945;48.516;-2.768;2023-10-08T15:18:52;25.90;42.70
72814;DHT22;60945;48.516;-2.768;2023-10-08T15:21:18;25.70;42.90
72814;DHT22;60945;48.516;-2.768;2023-10-08T15:23:44;25.30;43.90
72814;DHT22;60945;48.516;-2.768;2023-10-08T15:26:11;25.10;44.40
72814;DHT22;60945;48.516;-2.768;2023-10-08T15:28:38;24.90;44.60
72814;DHT22;60945;48.516;-2.768;2023-10-08T15:31:04;24.80;45.40
72814;DHT22;60945;48.516;-2.768;2023-10-08T15:33:32;24.60;44.20
72814;DHT22;60945;48.516;-2.768;2023-10-08T15:35:58;24.40;43.70
72814;DHT22;60945;48.516;-2.768;2023-10-08T15:38:25;24.30;44.00
72814;DHT22;60945;48.516;-2.768;2023-10-08T15:40:51;24.20;43.60
72814;DHT22;60945;48.516;-2.768;2023-10-08T15:43:17;24.10;42.80
72814;DHT22;60945;48.516;-2.768;2023-10-08T15:45:43;24.00;43.00
72814;DHT22;60945;48.516;-2.768;2023-10-08T15:48:10;23.90;43.30
72814;DHT22;60945;48.516;-2.768;2023-10-08T15:50:36;23.80;43.00
72814;DHT22;60945;48.516;-2.768;2023-10-08T15:53:01;23.50;41.80
72814;DHT22;60945;48.516;-2.768;2023-10-08T15:55:27;23.40;41.60